sensor_id;sensor_type;location;lat;lon;timestamp;pressure;altitude;pressure_sealevel;temperature;humidity
65800;BME280;52544;48.116;11.660;2023-06-14T00:00:13;95137.78;;;13.54;79.02
65800;BME280;52544;48.116;11.660;2023-06-14T00:02:39;95138.09;;;13.51;78.47
65800;BME280;52544;48.116;11.660;2023-06-14T00:05:05;95143.19;;;13.36;79.34
65800;BME280;52544;48.116;11.660;2023-06-14T00:07:39;95146.88;;;13.17;80.54
65800;BME280;52544;48.116;11.660;2023-06-14T00:10:09;95142.38;;;13.44;79.74
65800;BME280;52544;48.116;11.660;2023-06-14T00:12:34;95142.03;;;13.13;80.91
65800;BME280;52544;48.116;11.660;2023-06-14T00:15:00;95143.06;;;12.94;82.10
65800;BME280;52544;48.116;11.660;2023-06-14T00:17:29;95139.59;;;12.93;82.84
65800;BME280;52544;48.116;11.660;2023-06-14T00:19:58;95136.44;;;12.98;82.99
65800;BME280;52544;48.116;11.660;2023-06-14T00:22:24;95135.19;;;13.10;82.86
65800;BME280;52544;48.116;11.660;2023-06-14T00:24:50;95127.91;;;13.12;82.92
65800;BME280;52544;48.116;11.660;2023-06-14T00:27:16;95137.75;;;12.94;84.65
65800;BME280;52544;48.116;11.660;2023-06-14T00:29:41;95129.44;;;12.89;85.07
65800;BME280;52544;48.116;11.660;2023-06-14T00:32:07;95123.34;;;12.70;86.44
65800;BME280;52544;48.116;11.660;2023-06-14T00:34:33;95126.28;;;12.67;87.80
65800;BME280;52544;48.116;11.660;2023-06-14T00:36:58;95138.59;;;12.50;88.19
65800;BME280;52544;48.116;11.660;2023-06-14T00:39:24;95139.28;;;12.52;88.52
65800;BME280;52544;48.116;11.660;2023-06-14T00:41:49;95128.53;;;13.06;85.43
65800;BME280;52544;48.116;11.660;2023-06-14T00:44:16;95125.75;;;13.16;84.44
65800;BME280;52544;48.116;11.660;2023-06-14T00:46:41;95125.13;;;12.70;87.38
65800;BME280;52544;48.116;11.660;2023-06-14T00:49:08;95132.09;;;12.45;90.27
65800;BME280;52544;48.116;11.660;2023-06-14T00:51:33;95130.19;;;12.55;89.02
65800;BME280;52544;48.116;11.660;2023-06-14T00:53:59;95130.41;;;12.62;89.14
65800;BME280;52544;48.116;11.660;2023-06-14T00:56:26;95134.44;;;12.48;90.24
65800;BME280;52544;48.116;11.660;2023-06-14T00:58:53;95138.50;;;12.60;89.22
65800;BME280;52544;48.116;11.660;2023-06-14T01:01:18;95141.53;;;12.65;88.44
65800;BME280;52544;48.116;11.660;2023-06-14T01:03:43;95130.03;;;12.39;90.13
65800;BME280;52544;48.116;11.660;2023-06-14T01:09:01;95135.25;;;12.66;88.30
65800;BME280;52544;48.116;11.660;2023-06-14T01:11:33;95138.28;;;12.71;87.55
65800;BME280;52544;48.116;11.660;2023-06-14T01:14:03;95136.94;;;12.32;90.68
65800;BME280;52544;48.116;11.660;2023-06-14T01:16:30;95145.06;;;12.12;90.97
65800;BME280;52544;48.116;11.660;2023-06-14T01:18:56;95141.97;;;12.17;92.31
65800;BME280;52544;48.116;11.660;2023-06-14T01:21:24;95131.09;;;12.10;91.95
65800;BME280;52544;48.116;11.660;2023-06-14T01:23:50;95136.94;;;11.96;93.09
65800;BME280;52544;48.116;11.660;2023-06-14T01:26:22;95133.53;;;12.04;93.63
65800;BME280;52544;48.116;11.660;2023-06-14T01:28:49;95121.03;;;11.96;94.33
65800;BME280;52544;48.116;11.660;2023-06-14T01:31:19;95125.56;;;11.86;94.49
65800;BME280;52544;48.116;11.660;2023-06-14T01:33:48;95131.06;;;11.74;95.18
65800;BME280;52544;48.116;11.660;2023-06-14T01:36:15;95128.56;;;11.73;95.66
65800;BME280;52544;48.116;11.660;2023-06-14T01:38:41;95133.03;;;11.72;96.05
65800;BME280;52544;48.116;11.660;2023-06-14T01:41:08;95121.28;;;11.75;96.63
65800;BME280;52544;48.116;11.660;2023-06-14T01:43:35;95119.81;;;11.63;96.86
65800;BME280;52544;48.116;11.660;2023-06-14T01:46:02;95123.47;;;11.62;96.50
65800;BME280;52544;48.116;11.660;2023-06-14T01:48:28;95121.78;;;11.61;96.83
65800;BME280;52544;48.116;11.660;2023-06-14T01:50:53;95122.91;;;11.58;97.60
65800;BME280;52544;48.116;11.660;2023-06-14T01:53:19;95121.16;;;11.49;98.07
65800;BME280;52544;48.116;11.660;2023-06-14T01:55:44;95116.97;;;11.46;99.01
65800;BME280;52544;48.116;11.660;2023-06-14T01:58:14;95123.91;;;11.57;98.81
65800;BME280;52544;48.116;11.660;2023-06-14T02:00:41;95120.78;;;11.44;98.84
65800;BME280;52544;48.116;11.660;2023-06-14T02:03:08;95117.28;;;11.43;100.00
65800;BME280;52544;48.116;11.660;2023-06-14T02:05:34;95119.78;;;11.45;99.91
65800;BME280;52544;48.116;11.660;2023-06-14T02:08:00;95120.56;;;11.55;100.00
65800;BME280;52544;48.116;11.660;2023-06-14T02:10:25;95114.97;;;11.31;100.00
65800;BME280;52544;48.116;11.660;2023-06-14T02:12:51;95116.81;;;11.30;100.00
65800;BME280;52544;48.116;11.660;2023-06-14T02:15:17;95119.34;;;11.22;100.00
65800;BME280;52544;48.116;11.660;2023-06-14T02:17:46;95118.59;;;11.30;100.00
65800;BME280;52544;48.116;11.660;2023-06-14T02:20:14;95123.81;;;11.21;100.00
65800;BME280;52544;48.116;11.660;2023-06-14T02:22:40;95117.53;;;11.22;100.00
65800;BME280;52544;48.116;11.660;2023-06-14T02:25:06;95120.47;;;11.19;100.00
65800;BME280;52544;48.116;11.660;2023-06-14T02:27:32;95118.31;;;11.05;100.00
65800;BME280;52544;48.116;11.660;2023-06-14T02:29:58;95120.25;;;11.03;100.00
65800;BME280;52544;48.116;11.660;2023-06-14T02:32:24;95120.03;;;11.51;100.00
65800;BME280;52544;48.116;11.660;2023-06-14T02:34:49;95111.56;;;11.38;99.71
65800;BME280;52544;48.116;11.660;2023-06-14T02:37:16;95110.38;;;11.60;97.72
65800;BME280;52544;48.116;11.660;2023-06-14T02:39:41;95121.16;;;11.49;99.59
65800;BME280;52544;48.116;11.660;2023-06-14T02:42:07;95115.09;;;11.84;97.03
65800;BME280;52544;48.116;11.660;2023-06-14T02:44:32;95122.69;;;11.97;94.46
65800;BME280;52544;48.116;11.660;2023-06-14T02:46:57;95122.66;;;11.79;93.48
65800;BME280;52544;48.116;11.660;2023-06-14T02:49:24;95118.00;;;11.63;94.58
65800;BME280;52544;48.116;11.660;2023-06-14T02:51:49;95121.75;;;11.43;96.58
65800;BME280;52544;48.116;11.660;2023-06-14T02:54:15;95120.19;;;11.22;98.80
65800;BME280;52544;48.116;11.660;2023-06-14T02:56:40;95123.63;;;11.60;96.59
65800;BME280;52544;48.116;11.660;2023-06-14T02:59:06;95129.50;;;11.54;96.58
65800;BME280;52544;48.116;11.660;2023-06-14T03:01:32;95131.34;;;11.71;94.62
65800;BME280;52544;48.116;11.660;2023-06-14T03:04:06;95121.06;;;11.68;94.35
65800;BME280;52544;48.116;11.660;2023-06-14T03:06:32;95128.25;;;11.21;97.29
65800;BME280;52544;48.116;11.660;2023-06-14T03:08:59;95131.97;;;10.91;99.22
65800;BME280;52544;48.116;11.660;2023-06-14T03:11:29;95123.66;;;11.23;98.61
65800;BME280;52544;48.116;11.660;2023-06-14T03:13:55;95132.53;;;11.59;94.94
65800;BME280;52544;48.116;11.660;2023-06-14T03:16:21;95135.75;;;11.25;96.53
65800;BME280;52544;48.116;11.660;2023-06-14T03:18:51;95140.50;;;10.85;100.00
65800;BME280;52544;48.116;11.660;2023-06-14T03:21:17;95139.09;;;11.27;98.64
65800;BME280;52544;48.116;11.660;2023-06-14T03:23:43;95140.56;;;11.12;97.74
65800;BME280;52544;48.116;11.660;2023-06-14T03:26:09;95152.59;;;10.87;100.00
65800;BME280;52544;48.116;11.660;2023-06-14T03:28:38;95149.59;;;10.72;100.00
65800;BME280;52544;48.116;11.660;2023-06-14T03:31:03;95151.25;;;10.83;100.00
65800;BME280;52544;48.116;11.660;2023-06-14T03:33:29;95156.13;;;10.78;100.00
65800;BME280;52544;48.116;11.660;2023-06-14T03:35:54;95159.56;;;10.98;100.00
65800;BME280;52544;48.116;11.660;2023-06-14T03:38:21;95150.75;;;11.07;100.00
65800;BME280;52544;48.116;11.660;2023-06-14T03:40:46;95153.06;;;11.20;99.81
65800;BME280;52544;48.116;11.660;2023-06-14T03:43:12;95145.88;;;11.40;98.82
65800;BME280;52544;48.116;11.660;2023-06-14T03:45:37;95153.00;;;11.67;97.29
65800;BME280;52544;48.116;11.660;2023-06-14T03:48:03;95151.81;;;11.79;96.14
65800;BME280;52544;48.116;11.660;2023-06-14T03:50:28;95153.34;;;11.54;96.79
65800;BME280;52544;48.116;11.660;2023-06-14T03:52:53;95147.66;;;11.49;98.99
65800;BME280;52544;48.116;11.660;2023-06-14T03:55:19;95154.53;;;11.69;98.13
65800;BME280;52544;48.116;11.660;2023-06-14T03:57:44;95151.88;;;11.69;96.63
65800;BME280;52544;48.116;11.660;2023-06-14T04:00:10;95171.31;;;11.60;98.20
65800;BME280;52544;48.116;11.660;2023-06-14T04:02:38;95170.63;;;11.58;99.33
65800;BME280;52544;48.116;11.660;2023-06-14T04:05:03;95165.53;;;11.47;99.91
65800;BME280;52544;48.116;11.660;2023-06-14T04:07:29;95170.53;;;11.77;98.28
65800;BME280;52544;48.116;11.660;2023-06-14T04:09:55;95182.41;;;12.01;95.96
65800;BME280;52544;48.116;11.660;2023-06-14T04:12:20;95193.94;;;12.10;93.46
65800;BME280;52544;48.116;11.660;2023-06-14T04:14:46;95184.28;;;11.91;95.10
65800;BME280;52544;48.116;11.660;2023-06-14T04:17:11;95195.66;;;12.01;94.43
65800;BME280;52544;48.116;11.660;2023-06-14T04:19:37;95189.09;;;11.77;96.67
65800;BME280;52544;48.116;11.660;2023-06-14T04:22:02;95189.09;;;11.77;98.54
65800;BME280;52544;48.116;11.660;2023-06-14T04:24:28;95192.97;;;11.83;97.85
65800;BME280;52544;48.116;11.660;2023-06-14T04:26:58;95197.16;;;11.86;94.91
65800;BME280;52544;48.116;11.660;2023-06-14T04:29:25;95199.78;;;12.13;94.51
65800;BME280;52544;48.116;11.660;2023-06-14T04:31:53;95204.13;;;12.32;93.61
65800;BME280;52544;48.116;11.660;2023-06-14T04:34:19;95208.44;;;12.51;91.83
65800;BME280;52544;48.116;11.660;2023-06-14T04:36:47;95212.22;;;12.31;88.61
65800;BME280;52544;48.116;11.660;2023-06-14T04:39:22;95202.81;;;12.18;88.40
65800;BME280;52544;48.116;11.660;2023-06-14T04:41:47;95202.03;;;12.08;92.59
65800;BME280;52544;48.116;11.660;2023-06-14T04:44:13;95204.25;;;12.13;91.70
65800;BME280;52544;48.116;11.660;2023-06-14T04:46:39;95204.25;;;12.13;92.57
65800;BME280;52544;48.116;11.660;2023-06-14T04:49:16;95205.63;;;12.35;93.19
65800;BME280;52544;48.116;11.660;2023-06-14T04:51:43;95200.94;;;12.29;91.58
65800;BME280;52544;48.116;11.660;2023-06-14T04:54:09;95213.59;;;12.35;92.39
65800;BME280;52544;48.116;11.660;2023-06-14T04:56:42;95205.50;;;12.54;89.12
65800;BME280;52544;48.116;11.660;2023-06-14T04:59:07;95206.50;;;12.53;88.60
65800;BME280;52544;48.116;11.660;2023-06-14T05:01:34;95209.13;;;12.71;89.27
65800;BME280;52544;48.116;11.660;2023-06-14T05:04:00;95216.63;;;12.75;84.54
65800;BME280;52544;48.116;11.660;2023-06-14T05:06:25;95217.72;;;12.91;83.23
65800;BME280;52544;48.116;11.660;2023-06-14T05:08:54;95216.44;;;12.95;83.96
65800;BME280;52544;48.116;11.660;2023-06-14T05:11:20;95220.16;;;13.02;84.51
65800;BME280;52544;48.116;11.660;2023-06-14T05:13:45;95218.22;;;13.12;84.30
65800;BME280;52544;48.116;11.660;2023-06-14T05:16:12;95227.41;;;13.18;87.04
65800;BME280;52544;48.116;11.660;2023-06-14T05:18:37;95220.41;;;13.35;87.44
65800;BME280;52544;48.116;11.660;2023-06-14T05:21:03;95222.13;;;13.44;84.29
65800;BME280;52544;48.116;11.660;2023-06-14T05:23:30;95220.81;;;13.48;86.97
65800;BME280;52544;48.116;11.660;2023-06-14T05:25:56;95220.56;;;13.67;87.05
65800;BME280;52544;48.116;11.660;2023-06-14T05:28:22;95221.13;;;13.79;83.63
65800;BME280;52544;48.116;11.660;2023-06-14T05:30:47;95221.22;;;13.95;83.61
65800;BME280;52544;48.116;11.660;2023-06-14T05:33:13;95221.56;;;14.00;81.58
65800;BME280;52544;48.116;11.660;2023-06-14T05:35:38;95226.75;;;14.02;77.48
65800;BME280;52544;48.116;11.660;2023-06-14T05:38:04;95232.25;;;14.17;78.19
65800;BME280;52544;48.116;11.660;2023-06-14T05:40:29;95231.13;;;14.19;78.12
65800;BME280;52544;48.116;11.660;2023-06-14T05:42:55;95230.63;;;14.24;80.49
65800;BME280;52544;48.116;11.660;2023-06-14T05:45:20;95243.44;;;14.29;80.25
65800;BME280;52544;48.116;11.660;2023-06-14T05:47:46;95237.63;;;14.33;78.70
65800;BME280;52544;48.116;11.660;2023-06-14T05:50:11;95242.16;;;14.41;78.57
65800;BME280;52544;48.116;11.660;2023-06-14T05:52:36;95230.19;;;14.45;80.38
65800;BME280;52544;48.116;11.660;2023-06-14T05:55:03;95232.53;;;14.56;81.09
65800;BME280;52544;48.116;11.660;2023-06-14T05:57:29;95231.09;;;14.70;79.07
65800;BME280;52544;48.116;11.660;2023-06-14T05:59:54;95230.25;;;14.86;76.81
65800;BME280;52544;48.116;11.660;2023-06-14T06:02:20;95236.78;;;14.91;75.54
65800;BME280;52544;48.116;11.660;2023-06-14T06:04:46;95232.91;;;15.10;74.87
65800;BME280;52544;48.116;11.660;2023-06-14T06:07:11;95231.59;;;15.22;76.38
65800;BME280;52544;48.116;11.660;2023-06-14T06:09:36;95231.41;;;15.32;76.06
65800;BME280;52544;48.116;11.660;2023-06-14T06:12:02;95237.56;;;15.33;76.26
65800;BME280;52544;48.116;11.660;2023-06-14T06:14:28;95237.91;;;15.38;76.77
65800;BME280;52544;48.116;11.660;2023-06-14T06:16:54;95235.88;;;15.48;75.45
65800;BME280;52544;48.116;11.660;2023-06-14T06:19:19;95245.19;;;15.60;75.45
65800;BME280;52544;48.116;11.660;2023-06-14T06:21:45;95247.06;;;15.68;74.67
65800;BME280;52544;48.116;11.660;2023-06-14T06:24:10;95240.00;;;15.75;76.54
65800;BME280;52544;48.116;11.660;2023-06-14T06:26:35;95241.81;;;15.91;78.06
65800;BME280;52544;48.116;11.660;2023-06-14T06:29:01;95246.25;;;16.07;75.82
65800;BME280;52544;48.116;11.660;2023-06-14T06:31:27;95239.69;;;16.17;77.12
65800;BME280;52544;48.116;11.660;2023-06-14T06:33:53;95252.09;;;16.41;77.08
65800;BME280;52544;48.116;11.660;2023-06-14T06:36:19;95246.25;;;16.46;76.76
65800;BME280;52544;48.116;11.660;2023-06-14T06:38:47;95253.19;;;16.55;74.97
65800;BME280;52544;48.116;11.660;2023-06-14T06:41:12;95253.88;;;16.57;72.95
65800;BME280;52544;48.116;11.660;2023-06-14T06:43:38;95243.78;;;16.67;72.78
65800;BME280;52544;48.116;11.660;2023-06-14T06:46:04;95256.56;;;16.80;68.17
65800;BME280;52544;48.116;11.660;2023-06-14T06:48:29;95247.38;;;16.83;70.79
65800;BME280;52544;48.116;11.660;2023-06-14T06:50:55;95256.50;;;17.11;68.28
65800;BME280;52544;48.116;11.660;2023-06-14T06:53:20;95257.34;;;17.12;69.14
65800;BME280;52544;48.116;11.660;2023-06-14T06:55:46;95259.41;;;17.24;69.37
65800;BME280;52544;48.116;11.660;2023-06-14T06:58:12;95254.91;;;17.25;67.40
65800;BME280;52544;48.116;11.660;2023-06-14T07:00:37;95263.31;;;17.37;70.08
65800;BME280;52544;48.116;11.660;2023-06-14T07:03:03;95257.53;;;17.48;67.91
65800;BME280;52544;48.116;11.660;2023-06-14T07:05:29;95267.69;;;17.53;64.10
65800;BME280;52544;48.116;11.660;2023-06-14T07:07:55;95261.81;;;17.57;64.88
65800;BME280;52544;48.116;11.660;2023-06-14T07:10:20;95256.44;;;17.57;62.00
65800;BME280;52544;48.116;11.660;2023-06-14T07:12:46;95260.72;;;17.66;64.40
65800;BME280;52544;48.116;11.660;2023-06-14T07:15:11;95263.84;;;17.70;62.02
65800;BME280;52544;48.116;11.660;2023-06-14T07:17:37;95268.69;;;17.74;62.83
65800;BME280;52544;48.116;11.660;2023-06-14T07:20:03;95263.44;;;17.81;61.61
65800;BME280;52544;48.116;11.660;2023-06-14T07:22:42;95268.16;;;17.94;62.96
65800;BME280;52544;48.116;11.660;2023-06-14T07:25:11;95272.06;;;18.06;60.70
65800;BME280;52544;48.116;11.660;2023-06-14T07:27:41;95272.22;;;18.19;59.61
65800;BME280;52544;48.116;11.660;2023-06-14T07:30:07;95271.56;;;18.32;59.01
65800;BME280;52544;48.116;11.660;2023-06-14T07:32:32;95268.59;;;18.42;58.15
65800;BME280;52544;48.116;11.660;2023-06-14T07:34:58;95276.16;;;18.53;58.33
65800;BME280;52544;48.116;11.660;2023-06-14T07:37:23;95278.00;;;18.53;55.16
65800;BME280;52544;48.116;11.660;2023-06-14T07:39:49;95279.00;;;18.66;56.27
65800;BME280;52544;48.116;11.660;2023-06-14T07:42:14;95285.19;;;18.67;52.74
65800;BME280;52544;48.116;11.660;2023-06-14T07:44:39;95280.13;;;18.72;53.47
65800;BME280;52544;48.116;11.660;2023-06-14T07:47:05;95276.75;;;18.85;53.19
65800;BME280;52544;48.116;11.660;2023-06-14T07:49:30;95277.28;;;18.95;52.17
65800;BME280;52544;48.116;11.660;2023-06-14T07:51:56;95282.25;;;18.98;52.82
65800;BME280;52544;48.116;11.660;2023-06-14T07:54:21;95278.19;;;19.02;52.00
65800;BME280;52544;48.116;11.660;2023-06-14T07:56:50;95277.47;;;19.15;54.81
65800;BME280;52544;48.116;11.660;2023-06-14T07:59:16;95284.56;;;19.22;51.63
65800;BME280;52544;48.116;11.660;2023-06-14T08:01:41;95281.06;;;19.22;52.27
65800;BME280;52544;48.116;11.660;2023-06-14T08:04:12;95282.13;;;19.28;50.11
65800;BME280;52544;48.116;11.660;2023-06-14T08:06:38;95280.38;;;19.35;43.87
65800;BME280;52544;48.116;11.660;2023-06-14T08:09:04;95282.47;;;19.39;45.24
65800;BME280;52544;48.116;11.660;2023-06-14T08:11:30;95273.59;;;19.39;45.73
65800;BME280;52544;48.116;11.660;2023-06-14T08:13:56;95274.50;;;19.46;46.74
65800;BME280;52544;48.116;11.660;2023-06-14T08:16:21;95282.00;;;19.57;45.72
65800;BME280;52544;48.116;11.660;2023-06-14T08:18:47;95285.22;;;19.67;47.54
65800;BME280;52544;48.116;11.660;2023-06-14T08:21:12;95284.06;;;19.77;44.73
65800;BME280;52544;48.116;11.660;2023-06-14T08:23:40;95276.03;;;19.83;42.33
65800;BME280;52544;48.116;11.660;2023-06-14T08:26:06;95285.41;;;19.94;40.91
65800;BME280;52544;48.116;11.660;2023-06-14T08:28:32;95289.75;;;19.95;39.83
65800;BME280;52544;48.116;11.660;2023-06-14T08:30:57;95283.63;;;20.01;38.75
65800;BME280;52544;48.116;11.660;2023-06-14T08:33:22;95292.38;;;20.16;39.49
65800;BME280;52544;48.116;11.660;2023-06-14T08:35:48;95293.03;;;20.18;40.63
65800;BME280;52544;48.116;11.660;2023-06-14T08:38:14;95294.47;;;20.21;36.74
65800;BME280;52544;48.116;11.660;2023-06-14T08:40:39;95300.66;;;20.21;36.97
65800;BME280;52544;48.116;11.660;2023-06-14T08:43:06;95297.59;;;20.25;37.91
65800;BME280;52544;48.116;11.660;2023-06-14T08:45:32;95297.44;;;20.33;38.15
65800;BME280;52544;48.116;11.660;2023-06-14T08:47:57;95295.78;;;20.38;39.85
65800;BME280;52544;48.116;11.660;2023-06-14T08:50:25;95298.53;;;20.45;39.16
65800;BME280;52544;48.116;11.660;2023-06-14T08:53:00;95303.91;;;20.45;39.34
65800;BME280;52544;48.116;11.660;2023-06-14T08:55:28;95291.38;;;20.52;38.57
65800;BME280;52544;48.116;11.660;2023-06-14T08:57:56;95280.84;;;20.57;36.55
65800;BME280;52544;48.116;11.660;2023-06-14T09:00:25;95287.91;;;20.65;37.16
65800;BME280;52544;48.116;11.660;2023-06-14T09:02:52;95283.59;;;20.70;38.98
65800;BME280;52544;48.116;11.660;2023-06-14T09:05:26;95297.63;;;20.72;37.03
65800;BME280;52544;48.116;11.660;2023-06-14T09:07:52;95298.06;;;20.69;36.36
65800;BME280;52544;48.116;11.660;2023-06-14T09:10:21;95299.31;;;20.74;37.67
65800;BME280;52544;48.116;11.660;2023-06-14T09:12:46;95296.81;;;20.65;38.63
65800;BME280;52544;48.116;11.660;2023-06-14T09:15:12;95289.56;;;20.72;39.19
65800;BME280;52544;48.116;11.660;2023-06-14T09:17:39;95285.28;;;20.78;38.64
65800;BME280;52544;48.116;11.660;2023-06-14T09:20:06;95292.31;;;20.79;34.96
65800;BME280;52544;48.116;11.660;2023-06-14T09:22:37;95302.66;;;20.89;37.05
65800;BME280;52544;48.116;11.660;2023-06-14T09:25:03;95300.19;;;20.94;37.13
65800;BME280;52544;48.116;11.660;2023-06-14T09:27:29;95288.88;;;21.05;40.92
65800;BME280;52544;48.116;11.660;2023-06-14T09:29:55;95297.53;;;21.01;40.72
65800;BME280;52544;48.116;11.660;2023-06-14T09:32:21;95294.94;;;20.72;40.62
65800;BME280;52544;48.116;11.660;2023-06-14T09:34:47;95294.06;;;20.59;39.28
65800;BME280;52544;48.116;11.660;2023-06-14T09:37:12;95309.16;;;20.53;39.78
65800;BME280;52544;48.116;11.660;2023-06-14T09:39:50;95311.53;;;20.41;41.30
65800;BME280;52544;48.116;11.660;2023-06-14T09:42:17;95315.84;;;20.36;39.32
65800;BME280;52544;48.116;11.660;2023-06-14T09:44:47;95311.50;;;20.35;38.95
65800;BME280;52544;48.116;11.660;2023-06-14T09:47:16;95317.13;;;20.46;40.08
65800;BME280;52544;48.116;11.660;2023-06-14T09:49:42;95307.06;;;20.55;39.13
65800;BME280;52544;48.116;11.660;2023-06-14T09:52:18;95311.31;;;20.43;38.91
65800;BME280;52544;48.116;11.660;2023-06-14T09:54:45;95309.00;;;20.61;37.82
65800;BME280;52544;48.116;11.660;2023-06-14T09:57:23;95315.28;;;20.47;36.94
65800;BME280;52544;48.116;11.660;2023-06-14T09:59:53;95318.63;;;20.49;39.96
65800;BME280;52544;48.116;11.660;2023-06-14T10:02:24;95305.09;;;20.70;40.95
65800;BME280;52544;48.116;11.660;2023-06-14T10:04:58;95305.56;;;20.94;39.23
65800;BME280;52544;48.116;11.660;2023-06-14T10:07:32;95306.19;;;20.89;38.35
65800;BME280;52544;48.116;11.660;2023-06-14T10:10:01;95306.19;;;20.83;37.35
65800;BME280;52544;48.116;11.660;2023-06-14T10:12:26;95310.41;;;20.57;39.59
65800;BME280;52544;48.116;11.660;2023-06-14T10:14:53;95304.88;;;20.65;38.27
65800;BME280;52544;48.116;11.660;2023-06-14T10:17:27;95311.56;;;20.89;38.57
65800;BME280;52544;48.116;11.660;2023-06-14T10:20:14;95301.94;;;21.21;40.21
65800;BME280;52544;48.116;11.660;2023-06-14T10:23:13;95304.09;;;21.46;37.61
65800;BME280;52544;48.116;11.660;2023-06-14T10:25:42;95305.16;;;21.58;37.73
65800;BME280;52544;48.116;11.660;2023-06-14T10:30:38;95300.69;;;21.17;37.05
65800;BME280;52544;48.116;11.660;2023-06-14T10:33:07;95305.25;;;21.23;37.87
65800;BME280;52544;48.116;11.660;2023-06-14T10:35:34;95302.84;;;21.42;37.01
65800;BME280;52544;48.116;11.660;2023-06-14T10:38:09;95302.63;;;21.43;38.86
65800;BME280;52544;48.116;11.660;2023-06-14T10:40:36;95299.09;;;21.36;36.63
65800;BME280;52544;48.116;11.660;2023-06-14T10:43:20;95299.72;;;21.32;38.48
65800;BME280;52544;48.116;11.660;2023-06-14T10:46:17;95306.50;;;21.28;34.86
65800;BME280;52544;48.116;11.660;2023-06-14T10:48:44;95291.66;;;21.52;36.06
65800;BME280;52544;48.116;11.660;2023-06-14T10:51:20;95295.41;;;21.90;38.66
65800;BME280;52544;48.116;11.660;2023-06-14T10:53:47;95290.84;;;22.17;36.48
65800;BME280;52544;48.116;11.660;2023-06-14T10:56:49;95292.06;;;22.21;39.31
65800;BME280;52544;48.116;11.660;2023-06-14T10:59:16;95293.94;;;22.21;37.13
65800;BME280;52544;48.116;11.660;2023-06-14T11:04:34;95297.00;;;22.44;37.39
65800;BME280;52544;48.116;11.660;2023-06-14T11:10:15;95297.59;;;22.53;35.38
65800;BME280;52544;48.116;11.660;2023-06-14T11:12:47;95291.06;;;22.23;36.31
65800;BME280;52544;48.116;11.660;2023-06-14T11:15:13;95286.69;;;22.35;37.00
65800;BME280;52544;48.116;11.660;2023-06-14T11:17:38;95292.81;;;22.55;37.38
65800;BME280;52544;48.116;11.660;2023-06-14T11:20:08;95281.94;;;22.82;36.39
65800;BME280;52544;48.116;11.660;2023-06-14T11:22:41;95288.69;;;23.11;35.81
65800;BME280;52544;48.116;11.660;2023-06-14T11:25:11;95283.88;;;23.19;35.65
65800;BME280;52544;48.116;11.660;2023-06-14T11:27:37;95290.44;;;23.30;35.51
65800;BME280;52544;48.116;11.660;2023-06-14T11:30:02;95294.25;;;23.48;36.55
65800;BME280;52544;48.116;11.660;2023-06-14T11:32:28;95288.69;;;23.42;33.87
65800;BME280;52544;48.116;11.660;2023-06-14T11:34:56;95295.88;;;23.55;33.11
65800;BME280;52544;48.116;11.660;2023-06-14T11:37:24;95287.44;;;23.45;34.94
65800;BME280;52544;48.116;11.660;2023-06-14T11:39:51;95284.72;;;23.77;37.03
65800;BME280;52544;48.116;11.660;2023-06-14T11:42:17;95273.84;;;24.08;34.53
65800;BME280;52544;48.116;11.660;2023-06-14T11:44:46;95280.13;;;24.27;33.23
65800;BME280;52544;48.116;11.660;2023-06-14T11:47:12;95278.81;;;24.30;32.72
65800;BME280;52544;48.116;11.660;2023-06-14T11:49:38;95273.69;;;24.03;33.19
65800;BME280;52544;48.116;11.660;2023-06-14T11:52:03;95278.19;;;23.59;34.86
65800;BME280;52544;48.116;11.660;2023-06-14T11:54:29;95282.19;;;23.18;33.33
65800;BME280;52544;48.116;11.660;2023-06-14T11:56:54;95279.09;;;22.70;34.83
65800;BME280;52544;48.116;11.660;2023-06-14T11:59:20;95279.69;;;22.72;34.48
65800;BME280;52544;48.116;11.660;2023-06-14T12:01:47;95282.34;;;22.92;34.17
65800;BME280;52544;48.116;11.660;2023-06-14T12:04:13;95279.22;;;23.27;33.26
65800;BME280;52544;48.116;11.660;2023-06-14T12:06:38;95281.47;;;23.61;35.93
65800;BME280;52544;48.116;11.660;2023-06-14T12:09:05;95278.28;;;23.78;32.24
65800;BME280;52544;48.116;11.660;2023-06-14T12:11:43;95276.84;;;24.00;35.67
65800;BME280;52544;48.116;11.660;2023-06-14T12:14:09;95269.44;;;24.14;34.96
65800;BME280;52544;48.116;11.660;2023-06-14T12:16:36;95270.13;;;24.28;32.76
65800;BME280;52544;48.116;11.660;2023-06-14T12:19:16;95269.75;;;24.24;33.32
65800;BME280;52544;48.116;11.660;2023-06-14T12:21:43;95278.94;;;23.98;31.74
65800;BME280;52544;48.116;11.660;2023-06-14T12:24:11;95274.38;;;23.42;31.42
65800;BME280;52544;48.116;11.660;2023-06-14T12:26:41;95273.22;;;22.86;32.26
65800;BME280;52544;48.116;11.660;2023-06-14T12:29:07;95270.28;;;22.88;33.78
65800;BME280;52544;48.116;11.660;2023-06-14T12:31:33;95266.72;;;23.01;35.03
65800;BME280;52544;48.116;11.660;2023-06-14T12:33:58;95266.34;;;23.60;35.19
65800;BME280;52544;48.116;11.660;2023-06-14T12:36:24;95269.63;;;23.94;32.89
65800;BME280;52544;48.116;11.660;2023-06-14T12:38:50;95261.44;;;24.26;34.37
65800;BME280;52544;48.116;11.660;2023-06-14T12:41:19;95261.47;;;24.19;30.92
65800;BME280;52544;48.116;11.660;2023-06-14T12:43:46;95263.41;;;24.12;32.00
65800;BME280;52544;48.116;11.660;2023-06-14T12:46:12;95276.28;;;23.91;33.25
65800;BME280;52544;48.116;11.660;2023-06-14T12:48:37;95263.84;;;23.27;32.11
65800;BME280;52544;48.116;11.660;2023-06-14T12:51:03;95272.19;;;23.26;36.03
65800;BME280;52544;48.116;11.660;2023-06-14T12:53:28;95278.19;;;23.59;32.99
65800;BME280;52544;48.116;11.660;2023-06-14T12:55:53;95280.88;;;23.91;32.15
65800;BME280;52544;48.116;11.660;2023-06-14T12:58:19;95279.78;;;24.17;32.80
65800;BME280;52544;48.116;11.660;2023-06-14T13:00:45;95265.81;;;24.45;33.68